sensor_id;sensor_type;location;lat;lon;timestamp;P1;durP1;ratioP1;P2;durP2;ratioP2
44750;SDS011;30477;48.224;11.470;2023-06-24T00:01:25;8.37;;;5.40;;
44750;SDS011;30477;48.224;11.470;2023-06-24T00:03:50;6.43;;;5.78;;
44750;SDS011;30477;48.224;11.470;2023-06-24T00:06:21;6.95;;;5.80;;
44750;SDS011;30477;48.224;11.470;2023-06-24T00:08:47;7.68;;;5.30;;
44750;SDS011;30477;48.224;11.470;2023-06-24T00:11:13;6.93;;;6.18;;
44750;SDS011;30477;48.224;11.470;2023-06-24T00:13:39;9.33;;;5.83;;
44750;SDS011;30477;48.224;11.470;2023-06-24T00:16:05;6.63;;;5.85;;
44750;SDS011;30477;48.224;11.470;2023-06-24T00:18:34;6.60;;;5.40;;
44750;SDS011;30477;48.224;11.470;2023-06-24T00:21:00;6.15;;;5.47;;
44750;SDS011;30477;48.224;11.470;2023-06-24T00:23:27;8.50;;;6.05;;
44750;SDS011;30477;48.224;11.470;2023-06-24T00:25:53;7.13;;;6.10;;
44750;SDS011;30477;48.224;11.470;2023-06-24T00:28:20;7.28;;;5.97;;
44750;SDS011;30477;48.224;11.470;2023-06-24T00:30:49;6.65;;;5.40;;
44750;SDS011;30477;48.224;11.470;2023-06-24T00:33:15;6.78;;;5.75;;
44750;SDS011;30477;48.224;11.470;2023-06-24T00:35:45;7.57;;;5.53;;
44750;SDS011;30477;48.224;11.470;2023-06-24T00:38:11;9.57;;;5.80;;
44750;SDS011;30477;48.224;11.470;2023-06-24T00:40:37;6.63;;;5.80;;
44750;SDS011;30477;48.224;11.470;2023-06-24T00:43:03;7.72;;;5.68;;
44750;SDS011;30477;48.224;11.470;2023-06-24T00:45:29;6.97;;;6.20;;
44750;SDS011;30477;48.224;11.470;2023-06-24T00:48:00;6.93;;;5.70;;
44750;SDS011;30477;48.224;11.470;2023-06-24T00:50:28;8.35;;;5.95;;
44750;SDS011;30477;48.224;11.470;2023-06-24T00:52:53;6.57;;;5.93;;
44750;SDS011;30477;48.224;11.470;2023-06-24T00:55:19;6.50;;;5.83;;
44750;SDS011;30477;48.224;11.470;2023-06-24T00:57:48;7.90;;;6.40;;
44750;SDS011;30477;48.224;11.470;2023-06-24T01:00:16;6.60;;;5.90;;
44750;SDS011;30477;48.224;11.470;2023-06-24T01:02:43;7.63;;;5.95;;
44750;SDS011;30477;48.224;11.470;2023-06-24T01:05:10;7.35;;;6.15;;
44750;SDS011;30477;48.224;11.470;2023-06-24T01:10:02;7.05;;;6.07;;
44750;SDS011;30477;48.224;11.470;2023-06-24T01:12:30;6.80;;;5.43;;
44750;SDS011;30477;48.224;11.470;2023-06-24T01:14:56;10.00;;;5.80;;
44750;SDS011;30477;48.224;11.470;2023-06-24T01:17:28;6.80;;;6.00;;
44750;SDS011;30477;48.224;11.470;2023-06-24T01:31:06;7.05;;;6.32;;
44750;SDS011;30477;48.224;11.470;2023-06-24T01:33:52;7.55;;;6.25;;
44750;SDS011;30477;48.224;11.470;2023-06-24T01:36:43;8.10;;;6.35;;
44750;SDS011;30477;48.224;11.470;2023-06-24T01:39:14;7.72;;;5.90;;
44750;SDS011;30477;48.224;11.470;2023-06-24T01:41:47;7.57;;;6.35;;
44750;SDS011;30477;48.224;11.470;2023-06-24T01:44:20;7.40;;;6.00;;
44750;SDS011;30477;48.224;11.470;2023-06-24T01:46:46;7.65;;;6.78;;
44750;SDS011;30477;48.224;11.470;2023-06-24T01:49:15;8.05;;;6.30;;
44750;SDS011;30477;48.224;11.470;2023-06-24T01:51:43;7.25;;;6.35;;
44750;SDS011;30477;48.224;11.470;2023-06-24T01:54:13;6.75;;;6.05;;
44750;SDS011;30477;48.224;11.470;2023-06-24T01:56:41;7.72;;;6.00;;
44750;SDS011;30477;48.224;11.470;2023-06-24T01:59:08;7.40;;;5.95;;
44750;SDS011;30477;48.224;11.470;2023-06-24T02:01:35;6.85;;;6.15;;
44750;SDS011;30477;48.224;11.470;2023-06-24T02:04:04;7.20;;;5.75;;
44750;SDS011;30477;48.224;11.470;2023-06-24T02:06:33;7.72;;;6.32;;
44750;SDS011;30477;48.224;11.470;2023-06-24T02:09:00;7.07;;;6.20;;
44750;SDS011;30477;48.224;11.470;2023-06-24T02:11:28;8.57;;;6.20;;
44750;SDS011;30477;48.224;11.470;2023-06-24T02:13:56;7.13;;;6.18;;
44750;SDS011;30477;48.224;11.470;2023-06-24T02:16:24;8.55;;;5.75;;
44750;SDS011;30477;48.224;11.470;2023-06-24T02:18:51;6.78;;;6.07;;
44750;SDS011;30477;48.224;11.470;2023-06-24T02:21:17;8.85;;;5.82;;
44750;SDS011;30477;48.224;11.470;2023-06-24T02:23:45;7.35;;;6.20;;
44750;SDS011;30477;48.224;11.470;2023-06-24T02:26:12;7.72;;;5.82;;
44750;SDS011;30477;48.224;11.470;2023-06-24T02:28:38;7.57;;;6.00;;
44750;SDS011;30477;48.224;11.470;2023-06-24T02:33:30;6.55;;;5.85;;
44750;SDS011;30477;48.224;11.470;2023-06-24T02:35:56;7.55;;;5.82;;
44750;SDS011;30477;48.224;11.470;2023-06-24T02:38:22;7.33;;;5.70;;
44750;SDS011;30477;48.224;11.470;2023-06-24T02:40:47;6.57;;;5.88;;
44750;SDS011;30477;48.224;11.470;2023-06-24T02:43:14;8.25;;;5.78;;
44750;SDS011;30477;48.224;11.470;2023-06-24T02:45:39;7.13;;;6.43;;
44750;SDS011;30477;48.224;11.470;2023-06-24T02:48:06;7.50;;;5.85;;
44750;SDS011;30477;48.224;11.470;2023-06-24T02:50:34;6.90;;;5.88;;
44750;SDS011;30477;48.224;11.470;2023-06-24T02:55:26;6.53;;;5.40;;
44750;SDS011;30477;48.224;11.470;2023-06-24T02:57:52;6.28;;;5.45;;
44750;SDS011;30477;48.224;11.470;2023-06-24T03:00:18;6.10;;;5.30;;
44750;SDS011;30477;48.224;11.470;2023-06-24T03:02:45;6.38;;;5.72;;
44750;SDS011;30477;48.224;11.470;2023-06-24T03:05:11;5.80;;;5.20;;
44750;SDS011;30477;48.224;11.470;2023-06-24T03:07:39;7.18;;;5.78;;
44750;SDS011;30477;48.224;11.470;2023-06-24T03:10:05;6.68;;;5.50;;
44750;SDS011;30477;48.224;11.470;2023-06-24T03:12:31;8.05;;;5.70;;
44750;SDS011;30477;48.224;11.470;2023-06-24T03:14:57;6.40;;;5.43;;
44750;SDS011;30477;48.224;11.470;2023-06-24T03:17:22;6.60;;;5.37;;
44750;SDS011;30477;48.224;11.470;2023-06-24T03:19:49;7.00;;;5.70;;
44750;SDS011;30477;48.224;11.470;2023-06-24T03:22:15;6.70;;;5.95;;
44750;SDS011;30477;48.224;11.470;2023-06-24T03:24:42;7.10;;;5.75;;
44750;SDS011;30477;48.224;11.470;2023-06-24T03:27:07;6.38;;;5.45;;
44750;SDS011;30477;48.224;11.470;2023-06-24T03:29:33;6.57;;;5.37;;
44750;SDS011;30477;48.224;11.470;2023-06-24T03:31:58;7.60;;;5.43;;
44750;SDS011;30477;48.224;11.470;2023-06-24T03:34:23;7.17;;;5.80;;
44750;SDS011;30477;48.224;11.470;2023-06-24T03:39:15;8.80;;;5.50;;
44750;SDS011;30477;48.224;11.470;2023-06-24T03:41:40;6.27;;;5.63;;
44750;SDS011;30477;48.224;11.470;2023-06-24T03:44:05;6.33;;;5.73;;
44750;SDS011;30477;48.224;11.470;2023-06-24T03:46:31;6.40;;;5.80;;
44750;SDS011;30477;48.224;11.470;2023-06-24T03:48:57;7.35;;;5.82;;
44750;SDS011;30477;48.224;11.470;2023-06-24T03:51:23;6.32;;;5.40;;
44750;SDS011;30477;48.224;11.470;2023-06-24T03:53:49;6.80;;;5.57;;
44750;SDS011;30477;48.224;11.470;2023-06-24T03:56:15;9.52;;;6.00;;
44750;SDS011;30477;48.224;11.470;2023-06-24T03:58:40;6.73;;;5.13;;
44750;SDS011;30477;48.224;11.470;2023-06-24T04:01:06;5.83;;;5.23;;
44750;SDS011;30477;48.224;11.470;2023-06-24T04:03:31;6.07;;;5.43;;
44750;SDS011;30477;48.224;11.470;2023-06-24T04:05:57;7.33;;;5.43;;
44750;SDS011;30477;48.224;11.470;2023-06-24T04:08:22;6.97;;;5.65;;
44750;SDS011;30477;48.224;11.470;2023-06-24T04:10:50;6.00;;;5.00;;
44750;SDS011;30477;48.224;11.470;2023-06-24T04:13:15;5.97;;;5.15;;
44750;SDS011;30477;48.224;11.470;2023-06-24T04:15:41;6.10;;;4.93;;
44750;SDS011;30477;48.224;11.470;2023-06-24T04:18:06;6.63;;;5.43;;
44750;SDS011;30477;48.224;11.470;2023-06-24T04:20:32;7.82;;;4.95;;
44750;SDS011;30477;48.224;11.470;2023-06-24T04:22:59;9.30;;;5.40;;
44750;SDS011;30477;48.224;11.470;2023-06-24T04:25:25;6.03;;;5.00;;
44750;SDS011;30477;48.224;11.470;2023-06-24T04:27:50;7.67;;;6.00;;
44750;SDS011;30477;48.224;11.470;2023-06-24T04:30:16;5.70;;;5.17;;
44750;SDS011;30477;48.224;11.470;2023-06-24T04:32:41;7.33;;;4.93;;
44750;SDS011;30477;48.224;11.470;2023-06-24T04:35:06;5.33;;;4.83;;
44750;SDS011;30477;48.224;11.470;2023-06-24T04:37:32;6.07;;;5.07;;
44750;SDS011;30477;48.224;11.470;2023-06-24T04:39:57;6.33;;;4.80;;
44750;SDS011;30477;48.224;11.470;2023-06-24T04:42:23;5.97;;;4.70;;
44750;SDS011;30477;48.224;11.470;2023-06-24T04:44:48;6.00;;;4.90;;
44750;SDS011;30477;48.224;11.470;2023-06-24T04:47:17;6.93;;;5.03;;
44750;SDS011;30477;48.224;11.470;2023-06-24T04:49:43;5.38;;;4.70;;
44750;SDS011;30477;48.224;11.470;2023-06-24T04:52:08;5.63;;;4.95;;
44750;SDS011;30477;48.224;11.470;2023-06-24T04:54:35;5.43;;;4.93;;
44750;SDS011;30477;48.224;11.470;2023-06-24T04:57:00;7.23;;;5.37;;
44750;SDS011;30477;48.224;11.470;2023-06-24T04:59:26;7.50;;;4.90;;
44750;SDS011;30477;48.224;11.470;2023-06-24T05:01:51;6.93;;;5.00;;
44750;SDS011;30477;48.224;11.470;2023-06-24T05:04:16;8.63;;;4.97;;
44750;SDS011;30477;48.224;11.470;2023-06-24T05:06:42;6.17;;;5.30;;
44750;SDS011;30477;48.224;11.470;2023-06-24T05:09:08;6.80;;;5.20;;
44750;SDS011;30477;48.224;11.470;2023-06-24T05:11:35;5.65;;;5.05;;
44750;SDS011;30477;48.224;11.470;2023-06-24T05:14:00;5.93;;;5.00;;
44750;SDS011;30477;48.224;11.470;2023-06-24T05:16:26;5.37;;;4.83;;
44750;SDS011;30477;48.224;11.470;2023-06-24T05:18:51;6.77;;;5.40;;
44750;SDS011;30477;48.224;11.470;2023-06-24T05:21:16;5.67;;;4.90;;
44750;SDS011;30477;48.224;11.470;2023-06-24T05:23:42;6.47;;;5.43;;
44750;SDS011;30477;48.224;11.470;2023-06-24T05:26:07;5.53;;;4.93;;
44750;SDS011;30477;48.224;11.470;2023-06-24T05:28:32;6.83;;;5.30;;
44750;SDS011;30477;48.224;11.470;2023-06-24T05:30:58;9.83;;;5.23;;
44750;SDS011;30477;48.224;11.470;2023-06-24T05:33:23;8.47;;;5.70;;
44750;SDS011;30477;48.224;11.470;2023-06-24T05:35:48;7.33;;;5.17;;
44750;SDS011;30477;48.224;11.470;2023-06-24T05:38:15;6.88;;;4.93;;
44750;SDS011;30477;48.224;11.470;2023-06-24T05:40:40;6.93;;;5.40;;
44750;SDS011;30477;48.224;11.470;2023-06-24T05:43:05;9.03;;;5.63;;
44750;SDS011;30477;48.224;11.470;2023-06-24T05:45:31;5.57;;;5.07;;
44750;SDS011;30477;48.224;11.470;2023-06-24T05:47:56;6.57;;;5.17;;
44750;SDS011;30477;48.224;11.470;2023-06-24T05:50:21;7.50;;;5.30;;
44750;SDS011;30477;48.224;11.470;2023-06-24T05:52:47;8.97;;;5.40;;
44750;SDS011;30477;48.224;11.470;2023-06-24T05:55:12;6.70;;;5.47;;
44750;SDS011;30477;48.224;11.470;2023-06-24T06:00:04;5.65;;;5.05;;
44750;SDS011;30477;48.224;11.470;2023-06-24T06:02:30;6.18;;;5.55;;
44750;SDS011;30477;48.224;11.470;2023-06-24T06:04:55;6.77;;;5.50;;
44750;SDS011;30477;48.224;11.470;2023-06-24T06:07:20;6.23;;;5.63;;
44750;SDS011;30477;48.224;11.470;2023-06-24T06:09:46;7.93;;;5.57;;
44750;SDS011;30477;48.224;11.470;2023-06-24T06:12:11;6.80;;;5.53;;
44750;SDS011;30477;48.224;11.470;2023-06-24T06:14:37;7.00;;;5.20;;
44750;SDS011;30477;48.224;11.470;2023-06-24T06:17:02;5.17;;;4.60;;
44750;SDS011;30477;48.224;11.470;2023-06-24T06:19:27;6.83;;;5.20;;
44750;SDS011;30477;48.224;11.470;2023-06-24T06:21:53;5.47;;;4.80;;
44750;SDS011;30477;48.224;11.470;2023-06-24T06:24:18;5.97;;;5.10;;
44750;SDS011;30477;48.224;11.470;2023-06-24T06:26:44;6.00;;;5.00;;
44750;SDS011;30477;48.224;11.470;2023-06-24T06:29:10;5.53;;;4.60;;
44750;SDS011;30477;48.224;11.470;2023-06-24T06:34:01;5.13;;;4.63;;
44750;SDS011;30477;48.224;11.470;2023-06-24T06:36:26;6.53;;;4.75;;
44750;SDS011;30477;48.224;11.470;2023-06-24T06:38:52;5.75;;;4.72;;
44750;SDS011;30477;48.224;11.470;2023-06-24T06:41:17;4.80;;;4.30;;
44750;SDS011;30477;48.224;11.470;2023-06-24T06:43:49;5.30;;;4.72;;
44750;SDS011;30477;48.224;11.470;2023-06-24T06:46:14;4.85;;;4.28;;
44750;SDS011;30477;48.224;11.470;2023-06-24T06:48:39;4.60;;;4.20;;
44750;SDS011;30477;48.224;11.470;2023-06-24T06:51:05;6.43;;;4.67;;
44750;SDS011;30477;48.224;11.470;2023-06-24T06:53:30;5.37;;;4.70;;
44750;SDS011;30477;48.224;11.470;2023-06-24T06:55:55;5.80;;;4.87;;
44750;SDS011;30477;48.224;11.470;2023-06-24T06:58:21;5.17;;;4.50;;
44750;SDS011;30477;48.224;11.470;2023-06-24T07:00:46;5.13;;;3.97;;
44750;SDS011;30477;48.224;11.470;2023-06-24T07:03:11;5.67;;;4.90;;
44750;SDS011;30477;48.224;11.470;2023-06-24T07:05:37;4.60;;;4.10;;
44750;SDS011;30477;48.224;11.470;2023-06-24T07:08:03;5.47;;;4.33;;
44750;SDS011;30477;48.224;11.470;2023-06-24T07:10:30;5.18;;;4.68;;
44750;SDS011;30477;48.224;11.470;2023-06-24T07:12:55;6.60;;;4.40;;
44750;SDS011;30477;48.224;11.470;2023-06-24T07:15:23;4.88;;;4.47;;
44750;SDS011;30477;48.224;11.470;2023-06-24T07:17:49;8.05;;;3.90;;
44750;SDS011;30477;48.224;11.470;2023-06-24T07:20:15;5.50;;;3.90;;
44750;SDS011;30477;48.224;11.470;2023-06-24T07:22:40;5.57;;;4.80;;
44750;SDS011;30477;48.224;11.470;2023-06-24T07:25:05;5.70;;;5.00;;
44750;SDS011;30477;48.224;11.470;2023-06-24T07:27:31;6.57;;;5.15;;
44750;SDS011;30477;48.224;11.470;2023-06-24T07:29:56;6.00;;;4.90;;
44750;SDS011;30477;48.224;11.470;2023-06-24T07:32:22;4.27;;;3.87;;
44750;SDS011;30477;48.224;11.470;2023-06-24T07:34:47;5.97;;;4.37;;
44750;SDS011;30477;48.224;11.470;2023-06-24T07:37:12;5.77;;;4.50;;
44750;SDS011;30477;48.224;11.470;2023-06-24T07:39:38;5.80;;;4.40;;
44750;SDS011;30477;48.224;11.470;2023-06-24T07:42:03;8.80;;;3.83;;
44750;SDS011;30477;48.224;11.470;2023-06-24T07:44:29;4.63;;;3.88;;
44750;SDS011;30477;48.224;11.470;2023-06-24T07:46:54;3.90;;;3.57;;
44750;SDS011;30477;48.224;11.470;2023-06-24T07:49:19;6.53;;;3.70;;
44750;SDS011;30477;48.224;11.470;2023-06-24T07:51:45;6.03;;;4.20;;
44750;SDS011;30477;48.224;11.470;2023-06-24T07:54:10;3.97;;;3.67;;
44750;SDS011;30477;48.224;11.470;2023-06-24T07:56:36;5.40;;;4.43;;
44750;SDS011;30477;48.224;11.470;2023-06-24T07:59:01;4.17;;;3.77;;
44750;SDS011;30477;48.224;11.470;2023-06-24T08:01:27;3.75;;;3.40;;
44750;SDS011;30477;48.224;11.470;2023-06-24T08:03:52;4.00;;;3.60;;
44750;SDS011;30477;48.224;11.470;2023-06-24T08:06:18;5.23;;;4.73;;
44750;SDS011;30477;48.224;11.470;2023-06-24T08:08:43;4.90;;;3.78;;
44750;SDS011;30477;48.224;11.470;2023-06-24T08:11:11;4.13;;;3.63;;
44750;SDS011;30477;48.224;11.470;2023-06-24T08:16:01;4.10;;;3.70;;
44750;SDS011;30477;48.224;11.470;2023-06-24T08:20:52;4.93;;;3.40;;
44750;SDS011;30477;48.224;11.470;2023-06-24T08:25:43;5.00;;;3.27;;
44750;SDS011;30477;48.224;11.470;2023-06-24T08:28:08;3.40;;;3.10;;
44750;SDS011;30477;48.224;11.470;2023-06-24T08:30:52;3.47;;;3.17;;
44750;SDS011;30477;48.224;11.470;2023-06-24T08:33:36;3.45;;;3.15;;
44750;SDS011;30477;48.224;11.470;2023-06-24T08:36:02;3.50;;;3.15;;
44750;SDS011;30477;48.224;11.470;2023-06-24T08:38:27;3.90;;;3.53;;
44750;SDS011;30477;48.224;11.470;2023-06-24T08:40:53;5.38;;;3.53;;
44750;SDS011;30477;48.224;11.470;2023-06-24T08:43:18;4.32;;;3.60;;
44750;SDS011;30477;48.224;11.470;2023-06-24T08:45:44;5.20;;;3.85;;
44750;SDS011;30477;48.224;11.470;2023-06-24T08:53:34;3.83;;;3.53;;
44750;SDS011;30477;48.224;11.470;2023-06-24T08:56:01;5.03;;;4.00;;
44750;SDS011;30477;48.224;11.470;2023-06-24T08:58:27;4.65;;;4.20;;
44750;SDS011;30477;48.224;11.470;2023-06-24T09:00:52;4.97;;;3.80;;
44750;SDS011;30477;48.224;11.470;2023-06-24T09:03:18;5.38;;;4.47;;
44750;SDS011;30477;48.224;11.470;2023-06-24T09:05:43;4.60;;;4.20;;
44750;SDS011;30477;48.224;11.470;2023-06-24T09:08:09;4.25;;;3.92;;
44750;SDS011;30477;48.224;11.470;2023-06-24T09:10:35;4.40;;;4.00;;
44750;SDS011;30477;48.224;11.470;2023-06-24T09:13:05;4.63;;;4.10;;
44750;SDS011;30477;48.224;11.470;2023-06-24T09:15:32;4.88;;;4.05;;
44750;SDS011;30477;48.224;11.470;2023-06-24T09:17:58;4.32;;;3.70;;
44750;SDS011;30477;48.224;11.470;2023-06-24T09:20:27;4.38;;;3.97;;
44750;SDS011;30477;48.224;11.470;2023-06-24T09:23:00;5.45;;;4.50;;
44750;SDS011;30477;48.224;11.470;2023-06-24T09:25:26;5.22;;;4.30;;
44750;SDS011;30477;48.224;11.470;2023-06-24T09:30:18;5.35;;;4.10;;
44750;SDS011;30477;48.224;11.470;2023-06-24T09:32:45;5.75;;;4.10;;
44750;SDS011;30477;48.224;11.470;2023-06-24T09:35:11;7.43;;;3.75;;
44750;SDS011;30477;48.224;11.470;2023-06-24T09:37:37;5.28;;;4.38;;
44750;SDS011;30477;48.224;11.470;2023-06-24T09:40:03;5.90;;;4.80;;
44750;SDS011;30477;48.224;11.470;2023-06-24T09:42:31;5.20;;;4.50;;
44750;SDS011;30477;48.224;11.470;2023-06-24T09:44:56;5.75;;;5.18;;
44750;SDS011;30477;48.224;11.470;2023-06-24T09:47:22;6.47;;;5.07;;
44750;SDS011;30477;48.224;11.470;2023-06-24T09:49:50;4.60;;;3.90;;
44750;SDS011;30477;48.224;11.470;2023-06-24T09:52:16;4.20;;;3.80;;
44750;SDS011;30477;48.224;11.470;2023-06-24T09:54:44;5.70;;;4.20;;
44750;SDS011;30477;48.224;11.470;2023-06-24T09:57:15;4.90;;;4.40;;
44750;SDS011;30477;48.224;11.470;2023-06-24T09:59:43;4.40;;;4.00;;
44750;SDS011;30477;48.224;11.470;2023-06-24T10:02:11;4.55;;;4.15;;
44750;SDS011;30477;48.224;11.470;2023-06-24T10:04:39;3.70;;;3.40;;
44750;SDS011;30477;48.224;11.470;2023-06-24T10:07:06;3.72;;;3.42;;
44750;SDS011;30477;48.224;11.470;2023-06-24T10:09:31;3.75;;;3.33;;
44750;SDS011;30477;48.224;11.470;2023-06-24T10:11:56;4.50;;;3.40;;
44750;SDS011;30477;48.224;11.470;2023-06-24T10:14:22;7.18;;;3.53;;
44750;SDS011;30477;48.224;11.470;2023-06-24T10:16:48;4.35;;;3.38;;
44750;SDS011;30477;48.224;11.470;2023-06-24T10:19:18;4.00;;;3.60;;
44750;SDS011;30477;48.224;11.470;2023-06-24T10:21:50;3.97;;;3.60;;
44750;SDS011;30477;48.224;11.470;2023-06-24T10:24:30;3.65;;;3.35;;
44750;SDS011;30477;48.224;11.470;2023-06-24T10:29:34;6.80;;;4.00;;
44750;SDS011;30477;48.224;11.470;2023-06-24T10:32:02;4.55;;;3.78;;
44750;SDS011;30477;48.224;11.470;2023-06-24T10:34:30;5.53;;;4.03;;
44750;SDS011;30477;48.224;11.470;2023-06-24T10:37:01;4.55;;;3.60;;
44750;SDS011;30477;48.224;11.470;2023-06-24T10:44:51;4.70;;;3.80;;
44750;SDS011;30477;48.224;11.470;2023-06-24T10:47:18;5.28;;;4.30;;
44750;SDS011;30477;48.224;11.470;2023-06-24T10:49:44;4.07;;;3.70;;
44750;SDS011;30477;48.224;11.470;2023-06-24T10:52:09;4.90;;;3.55;;
44750;SDS011;30477;48.224;11.470;2023-06-24T10:54:36;4.25;;;3.85;;
44750;SDS011;30477;48.224;11.470;2023-06-24T10:57:03;5.95;;;4.45;;
44750;SDS011;30477;48.224;11.470;2023-06-24T10:59:34;4.97;;;3.83;;
44750;SDS011;30477;48.224;11.470;2023-06-24T11:02:08;4.82;;;4.03;;
44750;SDS011;30477;48.224;11.470;2023-06-24T11:07:09;4.72;;;3.90;;
44750;SDS011;30477;48.224;11.470;2023-06-24T11:12:02;4.73;;;4.10;;
44750;SDS011;30477;48.224;11.470;2023-06-24T11:14:28;5.65;;;3.88;;
44750;SDS011;30477;48.224;11.470;2023-06-24T11:19:19;5.22;;;4.07;;
44750;SDS011;30477;48.224;11.470;2023-06-24T11:24:09;5.05;;;4.47;;
44750;SDS011;30477;48.224;11.470;2023-06-24T11:26:36;6.47;;;4.20;;
44750;SDS011;30477;48.224;11.470;2023-06-24T11:29:12;4.32;;;3.92;;
44750;SDS011;30477;48.224;11.470;2023-06-24T11:31:37;4.70;;;4.28;;
44750;SDS011;30477;48.224;11.470;2023-06-24T11:36:37;6.20;;;4.28;;
44750;SDS011;30477;48.224;11.470;2023-06-24T11:41:29;4.82;;;4.15;;
44750;SDS011;30477;48.224;11.470;2023-06-24T11:43:54;4.63;;;4.10;;
44750;SDS011;30477;48.224;11.470;2023-06-24T11:46:26;5.00;;;4.13;;
44750;SDS011;30477;48.224;11.470;2023-06-24T11:49:05;5.43;;;4.80;;
44750;SDS011;30477;48.224;11.470;2023-06-24T11:51:31;5.35;;;4.55;;
44750;SDS011;30477;48.224;11.470;2023-06-24T11:54:00;5.13;;;4.63;;
44750;SDS011;30477;48.224;11.470;2023-06-24T11:56:36;5.35;;;3.88;;
44750;SDS011;30477;48.224;11.470;2023-06-24T11:59:06;5.15;;;4.30;;
44750;SDS011;30477;48.224;11.470;2023-06-24T12:01:32;4.60;;;4.07;;
44750;SDS011;30477;48.224;11.470;2023-06-24T12:04:01;6.38;;;4.63;;
44750;SDS011;30477;48.224;11.470;2023-06-24T12:06:34;5.70;;;4.47;;
44750;SDS011;30477;48.224;11.470;2023-06-24T12:08:59;4.60;;;4.20;;
44750;SDS011;30477;48.224;11.470;2023-06-24T12:11:24;6.30;;;4.83;;
44750;SDS011;30477;48.224;11.470;2023-06-24T12:16:15;5.20;;;4.70;;
44750;SDS011;30477;48.224;11.470;2023-06-24T12:18:40;5.80;;;5.00;;
44750;SDS011;30477;48.224;11.470;2023-06-24T12:21:05;4.90;;;4.50;;
44750;SDS011;30477;48.224;11.470;2023-06-24T12:23:31;5.90;;;4.63;;
44750;SDS011;30477;48.224;11.470;2023-06-24T12:25:56;5.10;;;4.30;;
44750;SDS011;30477;48.224;11.470;2023-06-24T12:28:21;10.00;;;5.00;;
44750;SDS011;30477;48.224;11.470;2023-06-24T12:30:47;7.33;;;4.57;;
44750;SDS011;30477;48.224;11.470;2023-06-24T12:33:12;5.90;;;4.30;;
44750;SDS011;30477;48.224;11.470;2023-06-24T12:35:38;5.35;;;3.90;;
44750;SDS011;30477;48.224;11.470;2023-06-24T12:38:03;4.80;;;4.30;;
44750;SDS011;30477;48.224;11.470;2023-06-24T12:40:28;6.30;;;4.47;;
44750;SDS011;30477;48.224;11.470;2023-06-24T12:42:54;4.87;;;4.07;;
44750;SDS011;30477;48.224;11.470;2023-06-24T12:45:19;4.87;;;4.20;;
44750;SDS011;30477;48.224;11.470;2023-06-24T12:47:44;6.70;;;4.00;;
44750;SDS011;30477;48.224;11.470;2023-06-24T12:50:10;5.07;;;4.13;;
44750;SDS011;30477;48.224;11.470;2023-06-24T12:52:35;4.70;;;4.20;;
44750;SDS011;30477;48.224;11.470;2023-06-24T12:55:02;4.63;;;4.20;;
44750;SDS011;30477;48.224;11.470;2023-06-24T12:57:28;4.82;;;4.07;;
44750;SDS011;30477;48.224;11.470;2023-06-24T12:59:54;4.88;;;4.28;;
44750;SDS011;30477;48.224;11.470;2023-06-24T13:02:19;4.33;;;3.93;;
44750;SDS011;30477;48.224;11.470;2023-06-24T13:04:44;6.40;;;4.33;;
44750;SDS011;30477;48.224;11.470;2023-06-24T13:07:12;4.80;;;4.30;;
44750;SDS011;30477;48.224;11.470;2023-06-24T13:09:37;4.33;;;3.80;;
44750;SDS011;30477;48.224;11.470;2023-06-24T13:12:03;4.50;;;4.10;;
44750;SDS011;30477;48.224;11.470;2023-06-24T13:16:54;5.17;;;4.20;;
44750;SDS011;30477;48.224;11.470;2023-06-24T13:19:20;4.65;;;4.03;;
44750;SDS011;30477;48.224;11.470;2023-06-24T13:21:46;5.95;;;4.60;;
44750;SDS011;30477;48.224;11.470;2023-06-24T13:24:11;4.68;;;4.28;;
44750;SDS011;30477;48.224;11.470;2023-06-24T13:26:37;5.38;;;4.32;;
44750;SDS011;30477;48.224;11.470;2023-06-24T13:29:03;4.78;;;4.30;;
44750;SDS011;30477;48.224;11.470;2023-06-24T13:31:29;12.07;;;4.40;;
44750;SDS011;30477;48.224;11.470;2023-06-24T13:33:54;5.47;;;4.20;;
44750;SDS011;30477;48.224;11.470;2023-06-24T13:36:30;4.67;;;4.20;;
44750;SDS011;30477;48.224;11.470;2023-06-24T13:38:57;5.88;;;5.30;;
44750;SDS011;30477;48.224;11.470;2023-06-24T13:41:23;5.20;;;4.70;;
44750;SDS011;30477;48.224;11.470;2023-06-24T13:43:48;5.78;;;3.90;;
44750;SDS011;30477;48.224;11.470;2023-06-24T13:48:40;4.87;;;3.93;;
44750;SDS011;30477;48.224;11.470;2023-06-24T13:51:07;4.30;;;3.80;;
44750;SDS011;30477;48.224;11.470;2023-06-24T13:53:33;4.27;;;3.87;;
44750;SDS011;30477;48.224;11.470;2023-06-24T13:55:58;6.67;;;4.17;;
44750;SDS011;30477;48.224;11.470;2023-06-24T13:58:23;4.37;;;3.97;;
44750;SDS011;30477;48.224;11.470;2023-06-24T14:00:49;4.57;;;4.17;;
44750;SDS011;30477;48.224;11.470;2023-06-24T14:03:14;4.20;;;3.80;;
44750;SDS011;30477;48.224;11.470;2023-06-24T14:05:39;4.13;;;3.73;;
44750;SDS011;30477;48.224;11.470;2023-06-24T14:08:05;3.93;;;3.57;;
44750;SDS011;30477;48.224;11.470;2023-06-24T14:10:30;5.10;;;4.20;;
44750;SDS011;30477;48.224;11.470;2023-06-24T14:12:55;4.57;;;4.17;;
44750;SDS011;30477;48.224;11.470;2023-06-24T14:15:21;4.35;;;3.95;;
44750;SDS011;30477;48.224;11.470;2023-06-24T14:17:47;8.27;;;4.35;;
44750;SDS011;30477;48.224;11.470;2023-06-24T14:20:12;5.78;;;4.00;;
44750;SDS011;30477;48.224;11.470;2023-06-24T14:22:38;4.73;;;4.07;;
44750;SDS011;30477;48.224;11.470;2023-06-24T14:25:03;4.40;;;4.00;;
44750;SDS011;30477;48.224;11.470;2023-06-24T14:27:29;4.72;;;4.20;;
44750;SDS011;30477;48.224;11.470;2023-06-24T14:29:54;5.70;;;3.80;;
44750;SDS011;30477;48.224;11.470;2023-06-24T14:32:20;4.60;;;4.20;;
44750;SDS011;30477;48.224;11.470;2023-06-24T14:34:45;4.23;;;3.83;;
44750;SDS011;30477;48.224;11.470;2023-06-24T14:37:11;4.72;;;3.90;;
44750;SDS011;30477;48.224;11.470;2023-06-24T14:39:36;3.93;;;3.57;;
44750;SDS011;30477;48.224;11.470;2023-06-24T14:42:01;4.90;;;3.87;;
44750;SDS011;30477;48.224;11.470;2023-06-24T14:44:27;4.93;;;3.90;;
44750;SDS011;30477;48.224;11.470;2023-06-24T14:46:52;4.33;;;3.93;;
44750;SDS011;30477;48.224;11.470;2023-06-24T14:49:17;6.43;;;4.67;;
44750;SDS011;30477;48.224;11.470;2023-06-24T14:51:43;4.47;;;4.00;;
44750;SDS011;30477;48.224;11.470;2023-06-24T14:54:08;5.70;;;4.00;;
44750;SDS011;30477;48.224;11.470;2023-06-24T14:56:33;4.40;;;4.00;;
44750;SDS011;30477;48.224;11.470;2023-06-24T14:58:59;7.53;;;3.70;;
44750;SDS011;30477;48.224;11.470;2023-06-24T15:01:24;4.07;;;3.67;;
44750;SDS011;30477;48.224;11.470;2023-06-24T15:03:49;4.77;;;4.33;;
44750;SDS011;30477;48.224;11.470;2023-06-24T15:06:15;8.03;;;4.03;;
44750;SDS011;30477;48.224;11.470;2023-06-24T15:08:40;4.30;;;3.90;;
44750;SDS011;30477;48.224;11.470;2023-06-24T15:11:05;5.57;;;4.40;;
44750;SDS011;30477;48.224;11.470;2023-06-24T15:13:31;6.30;;;4.57;;
44750;SDS011;30477;48.224;11.470;2023-06-24T15:15:56;5.43;;;3.97;;
44750;SDS011;30477;48.224;11.470;2023-06-24T15:18:22;5.20;;;3.90;;
44750;SDS011;30477;48.224;11.470;2023-06-24T15:20:48;4.88;;;4.18;;
44750;SDS011;30477;48.224;11.470;2023-06-24T15:23:13;4.65;;;4.25;;
44750;SDS011;30477;48.224;11.470;2023-06-24T15:25:38;4.73;;;4.10;;
44750;SDS011;30477;48.224;11.470;2023-06-24T15:28:04;4.67;;;4.17;;
44750;SDS011;30477;48.224;11.470;2023-06-24T15:30:29;5.60;;;4.37;;
44750;SDS011;30477;48.224;11.470;2023-06-24T15:32:54;5.45;;;4.05;;
44750;SDS011;30477;48.224;11.470;2023-06-24T15:35:20;4.03;;;3.63;;
44750;SDS011;30477;48.224;11.470;2023-06-24T15:37:45;6.73;;;3.80;;
44750;SDS011;30477;48.224;11.470;2023-06-24T15:40:10;4.20;;;3.80;;